sensor_id;sensor_type;location;lat;lon;timestamp;pressure;altitude;pressure_sealevel;temperature;humidity
31538;BME280;18147;51.952;6.146;2023-04-30T00:01:52;102283.13;;;8.66;100.00
31538;BME280;18147;51.952;6.146;2023-04-30T00:04:17;102276.66;;;8.73;100.00
31538;BME280;18147;51.952;6.146;2023-04-30T00:06:43;102274.34;;;8.64;100.00
31538;BME280;18147;51.952;6.146;2023-04-30T00:09:08;102279.69;;;8.62;100.00
31538;BME280;18147;51.952;6.146;2023-04-30T00:11:34;102281.38;;;8.65;100.00
31538;BME280;18147;51.952;6.146;2023-04-30T00:13:59;102288.50;;;8.64;100.00
31538;BME280;18147;51.952;6.146;2023-04-30T00:16:25;102290.44;;;8.59;100.00
31538;BME280;18147;51.952;6.146;2023-04-30T00:18:51;102284.69;;;8.45;100.00
31538;BME280;18147;51.952;6.146;2023-04-30T00:21:17;102291.81;;;8.43;100.00
31538;BME280;18147;51.952;6.146;2023-04-30T00:23:42;102287.84;;;8.26;100.00
31538;BME280;18147;51.952;6.146;2023-04-30T00:26:08;102291.03;;;8.10;100.00
31538;BME280;18147;51.952;6.146;2023-04-30T00:28:35;102294.75;;;8.02;100.00
31538;BME280;18147;51.952;6.146;2023-04-30T00:31:01;102294.22;;;7.91;100.00
31538;BME280;18147;51.952;6.146;2023-04-30T00:33:27;102300.25;;;7.96;100.00
31538;BME280;18147;51.952;6.146;2023-04-30T00:35:52;102289.19;;;8.12;100.00
31538;BME280;18147;51.952;6.146;2023-04-30T00:38:18;102296.47;;;8.05;100.00
31538;BME280;18147;51.952;6.146;2023-04-30T00:40:45;102299.81;;;8.12;100.00
31538;BME280;18147;51.952;6.146;2023-04-30T00:43:11;102293.72;;;8.08;100.00
31538;BME280;18147;51.952;6.146;2023-04-30T00:45:36;102287.53;;;8.08;100.00
31538;BME280;18147;51.952;6.146;2023-04-30T00:48:02;102296.38;;;8.08;100.00
31538;BME280;18147;51.952;6.146;2023-04-30T00:50:28;102291.38;;;7.97;100.00
31538;BME280;18147;51.952;6.146;2023-04-30T00:52:54;102299.06;;;7.44;100.00
31538;BME280;18147;51.952;6.146;2023-04-30T00:55:20;102307.53;;;7.59;100.00
31538;BME280;18147;51.952;6.146;2023-04-30T00:57:45;102311.06;;;7.59;100.00
31538;BME280;18147;51.952;6.146;2023-04-30T01:00:12;102310.22;;;7.57;100.00
31538;BME280;18147;51.952;6.146;2023-04-30T01:02:39;102306.53;;;7.63;100.00
31538;BME280;18147;51.952;6.146;2023-04-30T01:05:06;102300.94;;;7.73;100.00
31538;BME280;18147;51.952;6.146;2023-04-30T01:07:35;102312.44;;;7.72;100.00
31538;BME280;18147;51.952;6.146;2023-04-30T01:10:04;102310.75;;;7.70;100.00
31538;BME280;18147;51.952;6.146;2023-04-30T01:13:05;102309.66;;;7.77;100.00
31538;BME280;18147;51.952;6.146;2023-04-30T01:15:48;102307.06;;;7.75;100.00
31538;BME280;18147;51.952;6.146;2023-04-30T01:20:53;102305.88;;;7.86;100.00
31538;BME280;18147;51.952;6.146;2023-04-30T01:26:58;102303.41;;;7.79;100.00
31538;BME280;18147;51.952;6.146;2023-04-30T01:28:52;102311.41;;;7.78;100.00
31538;BME280;18147;51.952;6.146;2023-04-30T01:31:18;102300.16;;;7.70;100.00
31538;BME280;18147;51.952;6.146;2023-04-30T01:33:44;102299.47;;;7.63;100.00
31538;BME280;18147;51.952;6.146;2023-04-30T01:36:38;102300.94;;;7.73;100.00
31538;BME280;18147;51.952;6.146;2023-04-30T01:41:49;102301.09;;;7.67;100.00
31538;BME280;18147;51.952;6.146;2023-04-30T01:50:00;102301.38;;;7.58;100.00
31538;BME280;18147;51.952;6.146;2023-04-30T01:52:39;102298.78;;;7.55;100.00
31538;BME280;18147;51.952;6.146;2023-04-30T01:55:10;102299.81;;;7.49;100.00
31538;BME280;18147;51.952;6.146;2023-04-30T01:57:40;102308.81;;;7.44;100.00
31538;BME280;18147;51.952;6.146;2023-04-30T02:00:08;102306.47;;;7.33;100.00
31538;BME280;18147;51.952;6.146;2023-04-30T02:02:40;102310.13;;;7.27;100.00
31538;BME280;18147;51.952;6.146;2023-04-30T02:05:06;102316.63;;;7.16;100.00
31538;BME280;18147;51.952;6.146;2023-04-30T02:07:44;102317.66;;;7.10;100.00
31538;BME280;18147;51.952;6.146;2023-04-30T02:10:11;102317.59;;;7.12;100.00
31538;BME280;18147;51.952;6.146;2023-04-30T02:12:38;102330.09;;;7.07;100.00
31538;BME280;18147;51.952;6.146;2023-04-30T02:15:04;102328.38;;;7.06;100.00
31538;BME280;18147;51.952;6.146;2023-04-30T02:17:30;102326.41;;;7.14;100.00
31538;BME280;18147;51.952;6.146;2023-04-30T02:19:56;102327.63;;;7.00;100.00
31538;BME280;18147;51.952;6.146;2023-04-30T02:22:22;102328.53;;;6.99;100.00
31538;BME280;18147;51.952;6.146;2023-04-30T02:24:48;102329.34;;;7.03;100.00
31538;BME280;18147;51.952;6.146;2023-04-30T02:27:14;102330.53;;;6.90;100.00
31538;BME280;18147;51.952;6.146;2023-04-30T02:29:40;102332.97;;;6.97;100.00
31538;BME280;18147;51.952;6.146;2023-04-30T02:32:06;102334.41;;;6.75;100.00
31538;BME280;18147;51.952;6.146;2023-04-30T02:34:32;102345.78;;;6.80;100.00
31538;BME280;18147;51.952;6.146;2023-04-30T02:36:57;102339.56;;;6.81;100.00
31538;BME280;18147;51.952;6.146;2023-04-30T02:39:23;102334.97;;;6.89;100.00
31538;BME280;18147;51.952;6.146;2023-04-30T02:41:49;102335.13;;;6.83;100.00
31538;BME280;18147;51.952;6.146;2023-04-30T02:44:14;102337.97;;;6.74;100.00
31538;BME280;18147;51.952;6.146;2023-04-30T02:46:40;102328.09;;;6.81;100.00
31538;BME280;18147;51.952;6.146;2023-04-30T02:49:06;102332.22;;;6.94;100.00
31538;BME280;18147;51.952;6.146;2023-04-30T02:51:31;102328.59;;;6.96;100.00
31538;BME280;18147;51.952;6.146;2023-04-30T02:53:57;102331.75;;;6.75;100.00
31538;BME280;18147;51.952;6.146;2023-04-30T02:56:23;102330.69;;;6.82;100.00
31538;BME280;18147;51.952;6.146;2023-04-30T02:58:48;102327.19;;;6.82;100.00
31538;BME280;18147;51.952;6.146;2023-04-30T03:01:14;102327.94;;;6.88;100.00
31538;BME280;18147;51.952;6.146;2023-04-30T03:03:40;102318.28;;;6.84;100.00
31538;BME280;18147;51.952;6.146;2023-04-30T03:06:08;102317.44;;;6.84;100.00
31538;BME280;18147;51.952;6.146;2023-04-30T03:08:34;102314.78;;;6.82;100.00
31538;BME280;18147;51.952;6.146;2023-04-30T03:10:59;102316.63;;;6.80;100.00
31538;BME280;18147;51.952;6.146;2023-04-30T03:13:25;102319.28;;;6.80;100.00
31538;BME280;18147;51.952;6.146;2023-04-30T03:16:01;102311.47;;;6.72;100.00
31538;BME280;18147;51.952;6.146;2023-04-30T03:18:29;102308.63;;;6.82;100.00
31538;BME280;18147;51.952;6.146;2023-04-30T03:20:55;102308.59;;;6.83;100.00
31538;BME280;18147;51.952;6.146;2023-04-30T03:23:21;102307.59;;;6.87;100.00
31538;BME280;18147;51.952;6.146;2023-04-30T03:25:47;102310.50;;;6.78;100.00
31538;BME280;18147;51.952;6.146;2023-04-30T03:28:12;102316.72;;;6.75;100.00
31538;BME280;18147;51.952;6.146;2023-04-30T03:30:39;102313.16;;;6.39;100.00
31538;BME280;18147;51.952;6.146;2023-04-30T03:33:05;102312.75;;;6.56;100.00
31538;BME280;18147;51.952;6.146;2023-04-30T03:35:33;102319.75;;;6.60;100.00
31538;BME280;18147;51.952;6.146;2023-04-30T03:38:00;102316.28;;;6.57;100.00
31538;BME280;18147;51.952;6.146;2023-04-30T03:40:25;102311.97;;;6.53;100.00
31538;BME280;18147;51.952;6.146;2023-04-30T03:42:51;102311.97;;;6.53;100.00
31538;BME280;18147;51.952;6.146;2023-04-30T03:45:17;102311.31;;;6.43;100.00
31538;BME280;18147;51.952;6.146;2023-04-30T03:47:43;102312.00;;;6.51;100.00
31538;BME280;18147;51.952;6.146;2023-04-30T03:50:09;102307.47;;;6.56;100.00
31538;BME280;18147;51.952;6.146;2023-04-30T03:52:36;102318.91;;;6.58;100.00
31538;BME280;18147;51.952;6.146;2023-04-30T03:55:02;102319.75;;;6.60;100.00
31538;BME280;18147;51.952;6.146;2023-04-30T03:57:28;102317.13;;;6.59;100.00
31538;BME280;18147;51.952;6.146;2023-04-30T03:59:54;102313.72;;;6.52;100.00
31538;BME280;18147;51.952;6.146;2023-04-30T04:02:20;102319.88;;;6.54;100.00
31538;BME280;18147;51.952;6.146;2023-04-30T04:04:47;102314.63;;;6.53;100.00
31538;BME280;18147;51.952;6.146;2023-04-30T04:07:13;102313.88;;;6.46;100.00
31538;BME280;18147;51.952;6.146;2023-04-30T04:09:39;102307.72;;;6.45;100.00
31538;BME280;18147;51.952;6.146;2023-04-30T04:12:05;102312.03;;;6.49;100.00
31538;BME280;18147;51.952;6.146;2023-04-30T04:14:32;102314.88;;;6.40;100.00
31538;BME280;18147;51.952;6.146;2023-04-30T04:16:58;102314.06;;;6.37;100.00
31538;BME280;18147;51.952;6.146;2023-04-30T04:19:25;102312.28;;;6.39;100.00
31538;BME280;18147;51.952;6.146;2023-04-30T04:21:51;102311.94;;;6.54;100.00
31538;BME280;18147;51.952;6.146;2023-04-30T04:24:17;102308.34;;;6.94;100.00
31538;BME280;18147;51.952;6.146;2023-04-30T04:26:42;102308.38;;;7.28;100.00
31538;BME280;18147;51.952;6.146;2023-04-30T04:29:09;102304.59;;;7.68;100.00
31538;BME280;18147;51.952;6.146;2023-04-30T04:31:36;102297.81;;;8.20;100.00
31538;BME280;18147;51.952;6.146;2023-04-30T04:34:04;102296.00;;;8.78;100.00
31538;BME280;18147;51.952;6.146;2023-04-30T04:36:30;102285.06;;;9.39;100.00
31538;BME280;18147;51.952;6.146;2023-04-30T04:38:59;102287.13;;;10.04;100.00
31538;BME280;18147;51.952;6.146;2023-04-30T04:41:29;102290.72;;;10.72;100.00
31538;BME280;18147;51.952;6.146;2023-04-30T04:44:01;102292.03;;;11.26;100.00
31538;BME280;18147;51.952;6.146;2023-04-30T04:46:28;102287.41;;;11.90;100.00
31538;BME280;18147;51.952;6.146;2023-04-30T04:48:54;102284.81;;;12.46;100.00
31538;BME280;18147;51.952;6.146;2023-04-30T04:51:20;102283.34;;;12.93;94.96
31538;BME280;18147;51.952;6.146;2023-04-30T04:53:46;102293.03;;;13.13;90.62
31538;BME280;18147;51.952;6.146;2023-04-30T04:56:11;102293.66;;;12.65;91.05
31538;BME280;18147;51.952;6.146;2023-04-30T04:58:37;102297.88;;;12.70;93.02
31538;BME280;18147;51.952;6.146;2023-04-30T05:01:03;102291.03;;;13.36;88.57
31538;BME280;18147;51.952;6.146;2023-04-30T05:03:32;102287.22;;;13.05;88.37
31538;BME280;18147;51.952;6.146;2023-04-30T05:05:58;102305.63;;;12.58;91.02
31538;BME280;18147;51.952;6.146;2023-04-30T05:08:24;102293.94;;;12.23;93.23
31538;BME280;18147;51.952;6.146;2023-04-30T05:10:50;102293.03;;;12.96;91.50
31538;BME280;18147;51.952;6.146;2023-04-30T05:13:15;102288.47;;;13.67;85.67
31538;BME280;18147;51.952;6.146;2023-04-30T05:15:41;102290.84;;;14.07;80.58
31538;BME280;18147;51.952;6.146;2023-04-30T05:18:07;102290.47;;;13.97;81.45
31538;BME280;18147;51.952;6.146;2023-04-30T05:20:33;102288.25;;;14.84;78.42
31538;BME280;18147;51.952;6.146;2023-04-30T05:22:58;102278.16;;;15.03;73.66
31538;BME280;18147;51.952;6.146;2023-04-30T05:25:24;102281.41;;;15.69;72.65
31538;BME280;18147;51.952;6.146;2023-04-30T05:27:49;102290.53;;;15.22;71.66
31538;BME280;18147;51.952;6.146;2023-04-30T05:30:15;102285.88;;;15.54;70.76
31538;BME280;18147;51.952;6.146;2023-04-30T05:32:41;102291.91;;;15.13;74.09
31538;BME280;18147;51.952;6.146;2023-04-30T05:35:07;102296.34;;;15.14;74.74
31538;BME280;18147;51.952;6.146;2023-04-30T05:37:33;102295.25;;;15.02;73.83
31538;BME280;18147;51.952;6.146;2023-04-30T05:39:58;102299.16;;;14.34;77.42
31538;BME280;18147;51.952;6.146;2023-04-30T05:42:24;102302.56;;;14.53;77.24
31538;BME280;18147;51.952;6.146;2023-04-30T05:44:50;102305.13;;;13.90;79.23
31538;BME280;18147;51.952;6.146;2023-04-30T05:47:15;102305.59;;;13.98;77.87
31538;BME280;18147;51.952;6.146;2023-04-30T05:49:41;102299.59;;;13.60;83.56
31538;BME280;18147;51.952;6.146;2023-04-30T05:52:06;102302.31;;;13.42;83.14
31538;BME280;18147;51.952;6.146;2023-04-30T05:54:32;102294.41;;;13.90;82.93
31538;BME280;18147;51.952;6.146;2023-04-30T05:56:58;102299.34;;;13.82;84.51
31538;BME280;18147;51.952;6.146;2023-04-30T05:59:23;102307.59;;;12.90;87.17
31538;BME280;18147;51.952;6.146;2023-04-30T06:01:50;102303.25;;;13.24;86.03
31538;BME280;18147;51.952;6.146;2023-04-30T06:04:16;102298.16;;;13.70;87.42
31538;BME280;18147;51.952;6.146;2023-04-30T06:06:42;102296.06;;;13.59;85.76
31538;BME280;18147;51.952;6.146;2023-04-30T06:09:08;102302.53;;;13.20;90.08
31538;BME280;18147;51.952;6.146;2023-04-30T06:11:34;102299.84;;;13.55;89.22
31538;BME280;18147;51.952;6.146;2023-04-30T06:14:02;102307.97;;;13.36;89.49
31538;BME280;18147;51.952;6.146;2023-04-30T06:16:28;102312.44;;;13.18;86.98
31538;BME280;18147;51.952;6.146;2023-04-30T06:18:54;102306.50;;;13.31;87.72
31538;BME280;18147;51.952;6.146;2023-04-30T06:21:19;102313.59;;;13.13;88.06
31538;BME280;18147;51.952;6.146;2023-04-30T06:23:45;102307.41;;;13.64;87.26
31538;BME280;18147;51.952;6.146;2023-04-30T06:26:11;102324.53;;;13.62;86.78
31538;BME280;18147;51.952;6.146;2023-04-30T06:28:39;102320.97;;;13.27;86.63
31538;BME280;18147;51.952;6.146;2023-04-30T06:31:04;102317.00;;;13.86;86.27
31538;BME280;18147;51.952;6.146;2023-04-30T06:33:30;102323.91;;;12.86;87.41
31538;BME280;18147;51.952;6.146;2023-04-30T06:35:55;102322.06;;;13.40;87.97
31538;BME280;18147;51.952;6.146;2023-04-30T06:38:21;102319.25;;;13.26;89.13
31538;BME280;18147;51.952;6.146;2023-04-30T06:40:46;102306.91;;;13.91;86.02
31538;BME280;18147;51.952;6.146;2023-04-30T06:43:12;102308.91;;;13.53;86.13
31538;BME280;18147;51.952;6.146;2023-04-30T06:45:38;102303.94;;;13.95;84.75
31538;BME280;18147;51.952;6.146;2023-04-30T06:48:04;102303.22;;;13.76;83.76
31538;BME280;18147;51.952;6.146;2023-04-30T06:50:30;102303.06;;;13.95;87.89
31538;BME280;18147;51.952;6.146;2023-04-30T06:52:55;102305.91;;;13.76;85.32
31538;BME280;18147;51.952;6.146;2023-04-30T06:55:21;102297.41;;;14.17;82.18
31538;BME280;18147;51.952;6.146;2023-04-30T06:57:47;102302.97;;;14.45;81.91
31538;BME280;18147;51.952;6.146;2023-04-30T07:00:12;102307.53;;;14.12;81.72
31538;BME280;18147;51.952;6.146;2023-04-30T07:02:40;102309.78;;;14.35;84.47
31538;BME280;18147;51.952;6.146;2023-04-30T07:05:05;102313.44;;;14.34;84.26
31538;BME280;18147;51.952;6.146;2023-04-30T07:07:31;102323.69;;;14.10;85.05
31538;BME280;18147;51.952;6.146;2023-04-30T07:09:57;102315.34;;;14.16;80.94
31538;BME280;18147;51.952;6.146;2023-04-30T07:12:23;102312.59;;;14.00;81.03
31538;BME280;18147;51.952;6.146;2023-04-30T07:14:49;102319.72;;;14.02;82.88
31538;BME280;18147;51.952;6.146;2023-04-30T07:17:14;102317.34;;;13.95;85.59
31538;BME280;18147;51.952;6.146;2023-04-30T07:19:40;102322.72;;;13.95;82.26
31538;BME280;18147;51.952;6.146;2023-04-30T07:22:06;102322.16;;;13.56;85.45
31538;BME280;18147;51.952;6.146;2023-04-30T07:24:33;102328.94;;;13.45;86.12
31538;BME280;18147;51.952;6.146;2023-04-30T07:26:58;102326.66;;;13.38;87.24
31538;BME280;18147;51.952;6.146;2023-04-30T07:29:27;102328.19;;;13.07;89.07
31538;BME280;18147;51.952;6.146;2023-04-30T07:31:54;102331.69;;;13.44;88.84
31538;BME280;18147;51.952;6.146;2023-04-30T07:34:20;102320.97;;;13.61;86.42
31538;BME280;18147;51.952;6.146;2023-04-30T07:36:47;102325.28;;;13.64;86.99
31538;BME280;18147;51.952;6.146;2023-04-30T07:39:12;102331.47;;;13.99;87.33
31538;BME280;18147;51.952;6.146;2023-04-30T07:41:38;102320.97;;;14.28;83.85
31538;BME280;18147;51.952;6.146;2023-04-30T07:44:04;102319.34;;;14.41;82.33
31538;BME280;18147;51.952;6.146;2023-04-30T07:46:30;102310.16;;;14.92;78.05
31538;BME280;18147;51.952;6.146;2023-04-30T07:48:56;102315.03;;;15.16;78.48
31538;BME280;18147;51.952;6.146;2023-04-30T07:51:21;102318.28;;;15.07;76.25
31538;BME280;18147;51.952;6.146;2023-04-30T07:53:47;102317.72;;;15.16;77.46
31538;BME280;18147;51.952;6.146;2023-04-30T07:56:13;102324.38;;;14.79;77.30
31538;BME280;18147;51.952;6.146;2023-04-30T07:58:38;102318.16;;;14.62;77.70
31538;BME280;18147;51.952;6.146;2023-04-30T08:01:04;102324.00;;;15.00;76.73
31538;BME280;18147;51.952;6.146;2023-04-30T08:03:30;102319.34;;;15.34;78.48
31538;BME280;18147;51.952;6.146;2023-04-30T08:05:56;102321.66;;;15.40;75.01
31538;BME280;18147;51.952;6.146;2023-04-30T08:08:22;102316.94;;;15.74;76.82
31538;BME280;18147;51.952;6.146;2023-04-30T08:10:47;102326.22;;;15.24;76.32
31538;BME280;18147;51.952;6.146;2023-04-30T08:13:13;102325.13;;;15.12;76.20
31538;BME280;18147;51.952;6.146;2023-04-30T08:15:38;102334.59;;;15.03;81.52
31538;BME280;18147;51.952;6.146;2023-04-30T08:18:04;102335.13;;;15.24;78.91
31538;BME280;18147;51.952;6.146;2023-04-30T08:20:31;102343.78;;;14.84;80.84
31538;BME280;18147;51.952;6.146;2023-04-30T08:22:57;102340.16;;;14.69;82.07
31538;BME280;18147;51.952;6.146;2023-04-30T08:25:23;102337.13;;;14.59;82.35
31538;BME280;18147;51.952;6.146;2023-04-30T08:27:48;102331.72;;;14.91;81.37
31538;BME280;18147;51.952;6.146;2023-04-30T08:30:14;102322.81;;;14.43;82.84
31538;BME280;18147;51.952;6.146;2023-04-30T08:32:40;102332.91;;;14.71;83.97
31538;BME280;18147;51.952;6.146;2023-04-30T08:35:06;102326.03;;;14.81;84.10
31538;BME280;18147;51.952;6.146;2023-04-30T08:37:32;102334.31;;;14.45;88.04
31538;BME280;18147;51.952;6.146;2023-04-30T08:39:58;102317.16;;;14.95;82.77
31538;BME280;18147;51.952;6.146;2023-04-30T08:42:27;102332.16;;;14.36;81.42
31538;BME280;18147;51.952;6.146;2023-04-30T08:44:54;102331.41;;;14.81;84.71
31538;BME280;18147;51.952;6.146;2023-04-30T08:47:21;102335.72;;;14.36;84.30
31538;BME280;18147;51.952;6.146;2023-04-30T08:49:47;102342.75;;;14.55;86.51
31538;BME280;18147;51.952;6.146;2023-04-30T08:52:13;102333.94;;;14.53;82.87
31538;BME280;18147;51.952;6.146;2023-04-30T08:54:38;102326.66;;;14.86;89.05
31538;BME280;18147;51.952;6.146;2023-04-30T08:57:04;102331.31;;;14.83;87.55
31538;BME280;18147;51.952;6.146;2023-04-30T08:59:30;102320.16;;;14.59;85.46
31538;BME280;18147;51.952;6.146;2023-04-30T09:01:55;102316.56;;;14.90;87.55
31538;BME280;18147;51.952;6.146;2023-04-30T09:04:21;102319.53;;;14.85;84.84
31538;BME280;18147;51.952;6.146;2023-04-30T09:06:47;102314.75;;;14.90;78.89
31538;BME280;18147;51.952;6.146;2023-04-30T09:09:14;102320.28;;;15.03;83.41
31538;BME280;18147;51.952;6.146;2023-04-30T09:11:41;102309.84;;;14.83;82.51
31538;BME280;18147;51.952;6.146;2023-04-30T09:14:08;102316.69;;;15.18;82.48
31538;BME280;18147;51.952;6.146;2023-04-30T09:19:27;102311.47;;;14.85;83.99
31538;BME280;18147;51.952;6.146;2023-04-30T09:21:53;102309.22;;;14.77;85.09
31538;BME280;18147;51.952;6.146;2023-04-30T09:24:19;102310.59;;;14.85;84.39
31538;BME280;18147;51.952;6.146;2023-04-30T09:26:45;102316.66;;;14.88;80.97
31538;BME280;18147;51.952;6.146;2023-04-30T09:29:12;102316.16;;;14.66;81.08
31538;BME280;18147;51.952;6.146;2023-04-30T09:31:39;102311.47;;;15.01;81.59
31538;BME280;18147;51.952;6.146;2023-04-30T09:34:05;102305.31;;;14.83;81.07
31538;BME280;18147;51.952;6.146;2023-04-30T09:36:32;102310.50;;;15.02;86.91
31538;BME280;18147;51.952;6.146;2023-04-30T09:39:08;102315.28;;;14.97;81.03
31538;BME280;18147;51.952;6.146;2023-04-30T09:41:42;102313.47;;;14.82;81.87
31538;BME280;18147;51.952;6.146;2023-04-30T09:44:28;102303.47;;;14.99;80.23
31538;BME280;18147;51.952;6.146;2023-04-30T09:46:55;102300.88;;;15.28;82.22
31538;BME280;18147;51.952;6.146;2023-04-30T09:49:21;102308.47;;;15.06;82.24
31538;BME280;18147;51.952;6.146;2023-04-30T09:51:59;102302.78;;;14.96;80.01
31538;BME280;18147;51.952;6.146;2023-04-30T09:54:28;102295.66;;;15.55;81.78
31538;BME280;18147;51.952;6.146;2023-04-30T09:56:54;102299.38;;;15.38;76.64
31538;BME280;18147;51.952;6.146;2023-04-30T09:59:27;102299.16;;;15.27;81.85
31538;BME280;18147;51.952;6.146;2023-04-30T10:01:57;102290.59;;;15.20;78.25
31538;BME280;18147;51.952;6.146;2023-04-30T10:04:23;102298.00;;;15.31;82.45
31538;BME280;18147;51.952;6.146;2023-04-30T10:06:51;102282.16;;;15.71;79.42
31538;BME280;18147;51.952;6.146;2023-04-30T10:09:18;102288.41;;;15.27;77.82
31538;BME280;18147;51.952;6.146;2023-04-30T10:11:44;102281.44;;;15.09;76.85
31538;BME280;18147;51.952;6.146;2023-04-30T10:14:11;102281.00;;;15.16;76.85
31538;BME280;18147;51.952;6.146;2023-04-30T10:16:56;102273.25;;;15.40;76.96
31538;BME280;18147;51.952;6.146;2023-04-30T10:19:29;102278.47;;;15.13;77.66
31538;BME280;18147;51.952;6.146;2023-04-30T10:21:55;102280.16;;;15.30;79.35
31538;BME280;18147;51.952;6.146;2023-04-30T10:24:21;102271.50;;;15.69;76.06
31538;BME280;18147;51.952;6.146;2023-04-30T10:26:47;102277.16;;;15.20;74.92
31538;BME280;18147;51.952;6.146;2023-04-30T10:29:14;102279.59;;;15.69;77.89
31538;BME280;18147;51.952;6.146;2023-04-30T10:31:46;102278.22;;;15.18;74.07
31538;BME280;18147;51.952;6.146;2023-04-30T10:34:41;102262.72;;;15.37;73.50
31538;BME280;18147;51.952;6.146;2023-04-30T10:37:46;102274.06;;;15.12;77.76
31538;BME280;18147;51.952;6.146;2023-04-30T10:40:13;102270.84;;;15.36;79.98
31538;BME280;18147;51.952;6.146;2023-04-30T10:42:47;102271.84;;;15.49;77.92
31538;BME280;18147;51.952;6.146;2023-04-30T10:45:15;102260.88;;;15.38;74.27
31538;BME280;18147;51.952;6.146;2023-04-30T10:47:41;102263.44;;;15.69;75.31
31538;BME280;18147;51.952;6.146;2023-04-30T10:50:08;102256.47;;;15.51;74.64
31538;BME280;18147;51.952;6.146;2023-04-30T10:52:34;102252.28;;;15.75;80.55
31538;BME280;18147;51.952;6.146;2023-04-30T10:55:06;102253.22;;;15.60;77.29
31538;BME280;18147;51.952;6.146;2023-04-30T10:57:40;102251.38;;;15.61;76.11
31538;BME280;18147;51.952;6.146;2023-04-30T11:02:40;102243.31;;;16.32;73.63
31538;BME280;18147;51.952;6.146;2023-04-30T11:05:12;102235.38;;;16.43;75.51
31538;BME280;18147;51.952;6.146;2023-04-30T11:08:08;102233.81;;;16.53;72.29
31538;BME280;18147;51.952;6.146;2023-04-30T11:10:33;102233.09;;;16.37;75.92
31538;BME280;18147;51.952;6.146;2023-04-30T11:13:05;102230.44;;;16.23;73.75
31538;BME280;18147;51.952;6.146;2023-04-30T11:15:44;102226.75;;;15.97;71.64
31538;BME280;18147;51.952;6.146;2023-04-30T11:18:12;102226.31;;;16.17;73.38
31538;BME280;18147;51.952;6.146;2023-04-30T11:20:40;102222.88;;;16.01;78.05
31538;BME280;18147;51.952;6.146;2023-04-30T11:23:15;102222.53;;;15.93;73.71
31538;BME280;18147;51.952;6.146;2023-04-30T11:25:46;102215.69;;;16.43;68.74
31538;BME280;18147;51.952;6.146;2023-04-30T11:28:17;102214.28;;;15.82;73.28
31538;BME280;18147;51.952;6.146;2023-04-30T11:31:04;102218.75;;;15.81;74.88
31538;BME280;18147;51.952;6.146;2023-04-30T11:33:32;102213.44;;;16.22;74.95
31538;BME280;18147;51.952;6.146;2023-04-30T11:50:42;102190.66;;;16.41;70.16
31538;BME280;18147;51.952;6.146;2023-04-30T11:53:08;102185.34;;;16.53;71.59
31538;BME280;18147;51.952;6.146;2023-04-30T11:55:35;102183.84;;;16.89;76.00
31538;BME280;18147;51.952;6.146;2023-04-30T11:58:01;102185.94;;;16.71;69.42
31538;BME280;18147;51.952;6.146;2023-04-30T12:00:29;102173.06;;;16.89;77.39
31538;BME280;18147;51.952;6.146;2023-04-30T12:02:56;102175.31;;;16.82;76.54
31538;BME280;18147;51.952;6.146;2023-04-30T12:05:24;102173.84;;;17.04;77.20
31538;BME280;18147;51.952;6.146;2023-04-30T12:07:55;102169.28;;;16.92;73.28
31538;BME280;18147;51.952;6.146;2023-04-30T12:10:22;102169.94;;;16.82;67.88
31538;BME280;18147;51.952;6.146;2023-04-30T12:12:49;102162.19;;;17.03;66.96
31538;BME280;18147;51.952;6.146;2023-04-30T12:15:20;102160.03;;;17.08;67.41
31538;BME280;18147;51.952;6.146;2023-04-30T12:17:55;102158.75;;;17.14;65.57
31538;BME280;18147;51.952;6.146;2023-04-30T12:20:23;102169.88;;;17.22;72.11
31538;BME280;18147;51.952;6.146;2023-04-30T12:22:49;102173.59;;;16.54;69.87
31538;BME280;18147;51.952;6.146;2023-04-30T12:25:17;102165.56;;;16.67;69.38
31538;BME280;18147;51.952;6.146;2023-04-30T12:27:48;102150.22;;;16.82;66.43
31538;BME280;18147;51.952;6.146;2023-04-30T12:30:14;102158.31;;;16.95;69.23
31538;BME280;18147;51.952;6.146;2023-04-30T12:32:45;102156.94;;;17.02;71.47
31538;BME280;18147;51.952;6.146;2023-04-30T12:35:15;102155.84;;;17.04;67.68
31538;BME280;18147;51.952;6.146;2023-04-30T12:37:46;102148.50;;;17.19;68.90
31538;BME280;18147;51.952;6.146;2023-04-30T12:40:13;102142.22;;;17.31;66.08
31538;BME280;18147;51.952;6.146;2023-04-30T12:42:41;102133.72;;;17.38;63.23
31538;BME280;18147;51.952;6.146;2023-04-30T12:45:08;102139.38;;;17.84;64.13
31538;BME280;18147;51.952;6.146;2023-04-30T12:47:40;102133.81;;;17.49;65.66
31538;BME280;18147;51.952;6.146;2023-04-30T12:50:08;102127.69;;;17.34;63.73
31538;BME280;18147;51.952;6.146;2023-04-30T12:52:34;102134.03;;;17.58;69.98
31538;BME280;18147;51.952;6.146;2023-04-30T12:55:33;102136.53;;;17.23;66.26
31538;BME280;18147;51.952;6.146;2023-04-30T12:58:12;102129.75;;;17.05;64.52
31538;BME280;18147;51.952;6.146;2023-04-30T13:03:11;102119.50;;;17.10;65.08
31538;BME280;18147;51.952;6.146;2023-04-30T13:05:40;102111.31;;;17.37;64.01
31538;BME280;18147;51.952;6.146;2023-04-30T13:08:06;102116.56;;;17.39;68.13
31538;BME280;18147;51.952;6.146;2023-04-30T13:10:32;102117.97;;;17.44;67.75
31538;BME280;18147;51.952;6.146;2023-04-30T13:12:58;102107.53;;;17.01;63.95
31538;BME280;18147;51.952;6.146;2023-04-30T13:15:24;102104.63;;;17.17;64.22
31538;BME280;18147;51.952;6.146;2023-04-30T13:17:52;102104.88;;;17.64;65.23
31538;BME280;18147;51.952;6.146;2023-04-30T13:20:19;102099.56;;;17.75;62.29
31538;BME280;18147;51.952;6.146;2023-04-30T13:22:45;102104.06;;;17.25;62.63
31538;BME280;18147;51.952;6.146;2023-04-30T13:25:10;102097.72;;;17.13;64.58
31538;BME280;18147;51.952;6.146;2023-04-30T13:27:36;102107.06;;;17.46;64.07
31538;BME280;18147;51.952;6.146;2023-04-30T13:30:02;102099.16;;;17.55;64.32